Somerset, KY

7:01 AM EDT on October 23, 2014 (GMT -0400)
Somerset-Pulaski County-Wilson | Change Station
CLOSE
Current Station
Airport
Location: Somerset,
Elevation: 928 ft
Nearby Weather Stations

Elev 928 ft 37.05 °N, 84.62 °W | Updated 6 minutes ago

Overcast
Overcast
45 °F
Feels Like 43 °F
N
4
Wind Variable Wind from NE

Today
High -- | Low -- °F
--% Chance of Precip.
Yesterday
High -- | Low -- °F
Precip. -- in
7:53 AM 6:50 PM
Waning Crescent, 0% visible
Pressure 30.26 in
Visibility 10.0 miles
Clouds Overcast 2700 ft
Windchill 43 °F
Dew Point 39 °F
Humidity 81%
Rainfall 0.00 in
Snow Depth Not available.
UV 0 out of 12
Pollen 1.90 out of 12
Air Quality Not available.
Flu Activity Sporadic
METAR KSME 231055Z AUTO 05003KT 10SM OVC027 07/04 A3026 RMK AO2

More Conditions Fewer Conditions

Pressure 30.26 in
Visibility 10.0 miles
Clouds Overcast 2700 ft
Windchill 43 °F
Dew Point 39 °F
Humidity 81%
Rainfall 0.00 in
Snow Depth Not available.
UV 0 out of 12
Pollen 1.90 out of 12
Air Quality Not available.
Flu Activity Sporadic
METAR KSME 231055Z AUTO 05003KT 10SM OVC027 07/04 A3026 RMK AO2

More Conditions Fewer Conditions

10-Day Weather Forecast

Almanac

Astronomy

Oct. 23, 2014 Rise Set
Actual Time 7:53 AM EDT 6:50 PM EDT
Civil Twilight 7:26 AM EDT 7:17 PM EDT
Nautical Twilight 6:56 AM EDT 7:47 PM EDT
Astronomical Twilight 6:26 AM EDT 8:17 PM EDT
Moon 7:32 AM EDT 6:52 PM EDT
Length of Visible Light 11h 50m
Length of Day
10h 57m
Tomorrow will be 2m 12s shorter.
Waning Crescent, 0% of the Moon is Illuminated
Today
Waning Crescent
Oct 23
New
Oct 30
First Quarter
Nov 6
Full
Nov 14
Last Quarter

Today's Extremes

State Highs State Lows

Community

WunderPhotos

Upload Photos

1,764,204 photos uploaded!

Nearby

Snow Depth

Station Depth Elevation
No new snow has been reported.

Earthquake Activity

City Distance Mag. Time & Date
No recent earthquake activity has been reported nearby.
Minimum magnitude displayed is 2.5.

Coastal Water Temperatures

Place Temperature
No Stations Reporting

Nearby Weather Stations